Westbrookville, New York
Current Conditions -  °F | °C
As of 5:54 PM on Monday 22 Dec 2014 (Local Time) from KMGJ Reporting Station
Overcast Overcast  
Wind Chill: 32°   Ceiling: 1900
Heat Index: 37°   Visibility: 10mi
Dew Point: 33°   Wind: 6mph
Humidity: 86%   Direction: 20°NNE
Pressure: 30.23"   Gusts: NA
Location:  41.5°N, 74.56°W
Report Text: KMGJ 222254Z AUTO 02005KT 10SM OVC019 03/01 A3023 RMK AO2 SLP239 T00280006 TSNO
Loading
Personal Weather Stations






























Interactive Weather Map New forecast layout! Learn more

10-Day Weather Forecast

Advertisements
Track Severe Weather on mobile